Date,TemperatureHighF,TemperatureAvgF,TemperatureLowF,DewpointHighF,DewpointAvgF,DewpointLowF,HumidityHigh,HumidityAvg,HumidityLow,PressureMaxIn,PressureMinIn,WindSpeedMaxMPH,WindSpeedAvgMPH,GustSpeedMaxMPH,PrecipitationSumIn
2013-1-1,33.0,31.9,31.0,28.0,26.6,25.0,85,80,74,30.68,30.56,2,0,4,0.00
2013-1-2,32.0,31.3,30.0,27.0,26.1,24.0,85,81,77,30.67,30.55,6,1,9,0.00
2013-1-3,31.0,27.0,23.0,26.0,23.2,20.0,93,85,78,30.54,30.41,2,0,5,0.00
2013-1-4,34.0,29.6,24.0,28.0,25.4,21.0,91,84,72,30.50,30.43,4,1,10,0.00
2013-1-5,34.0,31.5,30.0,29.0,27.0,25.0,91,83,77,30.46,30.28,4,1,7,0.00
2013-1-6,35.0,31.1,27.0,31.0,28.0,24.0,92,88,83,30.28,30.13,3,0,7,0.02
2013-1-7,52.0,41.3,31.0,44.0,36.1,29.0,95,83,72,30.13,29.88,11,4,26,0.15
2013-1-8,52.0,47.5,45.0,43.0,40.4,38.0,85,76,69,30.16,29.91,10,2,20,0.00
2013-1-9,49.0,44.1,38.0,41.0,35.7,30.0,79,72,68,29.91,29.77,10,2,20,0.00
2013-1-10,42.0,36.8,31.0,30.0,26.3,20.0,80,66,53,30.06,29.88,6,1,13,0.00
2013-1-11,39.0,31.0,23.0,29.0,22.2,15.0,90,70,52,30.32,30.06,8,2,14,0.00
2013-1-12,32.0,24.4,18.0,25.0,19.8,15.0,93,83,63,30.44,30.31,5,1,9,0.00
2013-1-13,31.0,24.3,18.0,23.0,19.5,15.0,89,82,63,30.53,30.44,5,0,8,0.00
2013-1-14,37.0,29.1,23.0,28.0,24.0,20.0,89,81,68,30.53,30.37,3,0,6,0.00
2013-1-15,36.0,27.1,22.0,29.0,23.1,19.0,98,85,73,30.67,30.53,3,0,5,0.00
2013-1-16,30.0,26.8,20.0,27.0,23.4,17.0,92,87,85,30.69,30.63,2,0,5,0.00
2013-1-17,32.0,30.3,29.0,27.0,26.4,26.0,90,85,80,30.65,30.47,2,0,5,0.00
2013-1-18,32.0,29.9,28.0,28.0,26.4,25.0,89,87,83,30.47,30.35,4,1,7,0.00
2013-1-19,31.0,29.9,29.0,28.0,26.4,26.0,89,86,84,30.55,30.43,3,0,6,0.00
2013-1-20,30.0,29.5,29.0,27.0,26.0,25.0,88,86,83,30.62,30.54,2,0,5,0.00
2013-1-24,35.0,32.0,29.0,30.0,27.7,25.0,88,84,80,30.31,30.23,6,-36,9,0.01
2013-1-25,35.0,32.4,30.0,32.0,29.8,27.0,93,89,86,30.23,30.01,4,0,7,0.07
2013-1-26,37.0,34.4,33.0,36.0,32.8,31.0,95,94,93,30.06,29.98,2,-255,3,0.06
2013-1-27,42.0,34.6,31.0,34.0,31.3,29.0,94,89,72,30.09,29.98,5,-325,13,0.00
2013-1-28,44.0,39.1,33.0,36.0,33.6,30.0,91,81,73,30.02,29.93,7,-528,17,0.00
2013-1-29,49.0,45.5,40.0,40.0,36.3,-99.9,80,72,65,30.24,29.95,10,-433,18,0.00
2013-1-30,54.0,48.9,45.0,43.0,40.2,38.0,78,71,65,30.29,30.21,11,-319,22,0.00
2013-1-31,56.0,50.3,43.0,44.0,41.2,38.0,82,71,59,30.33,30.24,6,3,14,0.00
2013-2-1,57.0,42.2,31.0,42.0,35.7,29.0,94,79,49,30.49,30.27,3,-7,9,0.00
2013-2-2,49.0,36.5,28.0,39.0,32.5,26.0,94,86,67,30.51,30.30,5,-138,9,0.00
2013-2-3,37.0,33.8,31.0,36.0,32.7,30.0,96,95,94,30.31,30.20,4,-65,7,0.01
2013-2-4,49.0,39.9,35.0,41.0,37.0,34.0,96,89,73,30.20,29.98,4,-48,8,0.01
2013-2-5,55.0,44.0,33.0,42.0,36.6,31.0,94,77,57,29.99,29.88,9,-148,16,0.00
2013-2-6,55.0,47.1,42.0,38.0,35.8,34.0,76,66,46,30.10,29.91,9,-39,17,0.00
2013-2-7,48.0,44.2,42.0,36.0,35.0,34.0,77,70,62,30.10,29.90,7,-601,13,0.00
2013-2-8,46.0,27.6,27.0,35.0,24.4,24.0,89,87,64,30.22,30.10,0,-865,1,0.00
2013-2-9,49.0,36.4,26.0,34.0,28.6,23.0,92,75,50,30.24,30.12,5,-377,10,0.00
2013-2-10,32.0,26.2,25.0,28.0,23.8,23.0,92,91,82,30.34,30.24,0,-715,0,0.00
2013-2-11,28.0,27.0,27.0,25.0,24.0,24.0,90,89,86,30.29,30.22,0,-934,0,0.00
2013-2-12,55.0,42.3,27.0,43.0,34.8,24.0,89,76,61,30.36,30.26,10,-305,17,0.00
2013-2-13,56.0,48.6,37.0,42.0,38.1,31.0,80,68,53,30.42,30.23,10,-82,24,0.00
2013-2-14,55.0,41.3,31.0,40.0,33.3,28.0,90,75,54,30.55,30.42,6,-391,9,0.00
2013-2-15,56.0,40.1,27.0,41.0,33.7,25.0,94,79,55,30.57,30.28,5,-328,7,0.00
2013-2-16,59.0,45.7,28.0,43.0,36.1,26.0,94,70,41,30.29,30.01,10,-324,19,0.00
2013-2-17,54.0,44.6,36.0,33.0,29.5,27.0,73,57,39,30.19,30.10,7,-265,14,0.00
2013-2-18,46.0,38.7,30.0,40.0,29.2,27.0,88,71,48,30.14,29.81,2,-542,5,0.00
2013-2-19,38.0,36.0,33.0,33.0,30.5,28.0,85,80,77,29.97,29.78,4,-492,8,0.00
2013-2-20,40.0,30.8,26.0,32.0,26.9,23.0,91,85,71,30.07,29.97,0,-784,2,0.00
2013-2-21,50.0,41.1,32.0,37.0,32.1,27.0,88,71,52,30.08,30.03,10,-267,22,0.00
2013-2-22,51.0,45.8,42.0,40.0,35.7,29.0,75,68,58,30.06,29.77,13,5,27,0.01
2013-2-23,49.0,39.6,37.0,31.0,28.6,25.0,76,65,43,30.32,29.88,11,-424,19,0.00
2013-2-24,47.0,41.7,35.0,33.0,30.2,28.0,77,64,54,30.37,30.07,8,-540,19,0.00
2013-2-25,54.0,42.1,35.0,37.0,31.1,28.0,80,66,39,30.25,29.97,13,-333,26,0.00
2013-2-26,51.0,41.9,33.0,33.0,29.7,27.0,79,63,44,30.38,30.25,7,-40,14,0.00
2013-2-27,53.0,38.9,36.0,38.0,30.9,29.0,79,74,49,30.33,30.23,4,-732,10,0.00
2013-2-28,54.0,47.7,44.0,48.0,42.2,36.0,94,82,61,30.36,30.26,5,-270,19,0.04
2013-3-1,65.0,57.5,50.0,49.0,46.0,43.0,81,66,48,30.40,30.29,12,4,23,0.04
2013-3-2,54.0,50.9,48.0,46.0,44.8,43.0,85,79,73,30.29,30.00,5,-697,7,0.00
2013-3-3,55.0,49.0,41.0,45.0,30.0,18.0,79,51,25,30.26,30.06,13,-416,19,0.00
2013-3-4,52.0,41.9,31.0,39.0,26.1,23.0,77,54,37,30.33,30.06,4,-263,7,0.00
2013-3-5,47.0,39.0,31.0,38.0,30.8,23.0,88,72,58,30.06,29.83,9,2,12,0.01
2013-3-6,47.0,41.2,37.0,41.0,37.5,35.0,93,87,75,29.93,29.62,10,4,23,0.18
2013-3-7,57.0,46.2,34.0,38.0,32.5,26.0,82,61,33,30.08,29.93,9,3,17,0.01
2013-3-8,55.0,40.7,29.0,40.0,32.1,26.0,89,73,47,30.19,30.06,5,1,10,0.00
2013-3-9,59.0,39.6,27.0,37.0,30.9,25.0,93,74,38,30.43,30.20,4,0,7,0.00
2013-3-10,52.0,36.7,31.0,37.0,30.8,28.0,88,80,52,30.45,30.40,6,1,10,0.00
2013-3-11,57.0,51.1,39.0,44.0,37.7,33.0,92,62,41,30.37,30.22,5,1,9,0.00
2013-3-12,65.0,56.6,49.0,48.0,44.6,40.0,83,65,45,30.22,30.07,11,4,24,0.00
2013-3-13,69.0,58.7,50.0,47.0,43.5,41.0,76,58,40,30.20,30.10,9,3,17,0.00
2013-3-14,68.0,55.9,47.0,50.0,43.8,32.0,87,67,34,30.12,29.99,10,1,16,0.00
2013-3-15,65.0,56.9,51.0,48.0,44.0,40.0,79,63,45,30.20,30.10,9,3,20,0.00
2013-3-16,58.0,51.6,40.0,44.0,39.9,32.0,85,65,47,30.10,29.84,13,5,22,0.01
2013-3-17,53.0,44.6,38.0,33.0,30.2,26.0,76,58,37,30.14,29.93,13,8,33,0.01
2013-3-18,57.0,45.7,37.0,34.0,29.7,25.0,79,56,30,30.25,30.06,13,5,29,0.00
2013-3-19,55.0,41.0,27.0,33.0,27.1,23.0,86,60,37,30.27,29.80,8,1,12,0.00
2013-3-20,60.0,46.4,40.0,46.0,37.7,30.0,95,75,34,29.97,29.56,17,5,32,0.12
2013-3-21,52.0,43.8,38.0,35.0,30.0,26.0,73,59,40,30.15,29.97,13,6,27,0.02
2013-3-22,51.0,42.4,34.0,31.0,25.8,20.0,73,53,31,30.35,30.14,10,3,16,0.01
2013-3-23,51.0,38.0,27.0,31.0,24.8,20.0,86,62,31,30.42,30.29,5,0,9,0.01
2013-3-24,53.0,37.7,23.0,32.0,23.6,19.0,84,60,28,30.38,30.18,5,1,8,0.00
2013-3-25,57.0,44.5,32.0,40.0,28.5,23.0,78,55,38,30.20,29.98,7,2,11,0.00
2013-3-26,63.0,50.7,39.0,41.0,34.2,30.0,87,55,34,30.05,29.95,4,1,6,0.00
2013-3-27,65.0,54.3,47.0,50.0,45.0,40.0,93,72,50,30.00,29.92,4,1,9,0.03
2013-3-28,66.0,54.9,45.0,47.0,43.2,40.0,85,66,46,30.10,30.00,4,0,6,0.01
2013-3-29,69.0,55.5,46.0,49.0,44.5,41.0,92,69,42,30.23,30.10,4,0,8,0.01
2013-3-30,71.0,53.8,37.0,47.0,39.7,-99.9,94,66,30,30.29,30.10,5,1,8,0.01
2013-4-3,71.0,63.2,49.0,47.0,43.5,37.0,84,51,30,30.14,29.96,7,1,12,0.00
2013-4-4,60.0,54.4,48.0,53.0,47.3,43.0,92,77,64,29.96,29.72,6,1,11,0.18
2013-4-5,69.0,58.4,51.0,50.0,44.9,42.0,81,62,43,29.91,29.83,13,4,31,0.18
2013-4-6,62.0,55.7,51.0,48.0,42.2,37.0,86,62,42,29.97,29.83,11,4,27,0.00
2013-4-7,60.0,51.8,45.0,47.0,40.7,36.0,95,68,42,29.86,29.58,20,6,35,0.10
2013-4-8,58.0,48.9,41.0,41.0,37.3,35.0,81,65,46,30.23,29.81,6,1,13,0.00
2013-4-9,64.0,51.5,34.0,44.0,38.5,32.0,95,65,36,30.36,30.20,6,1,10,0.02
2013-4-10,70.0,59.0,50.0,49.0,39.8,32.0,70,50,29,30.20,29.92,18,5,31,0.00
2013-4-11,62.0,51.5,42.0,39.0,35.7,29.0,81,56,38,30.22,30.10,7,2,21,0.01
2013-4-12,61.0,48.6,36.0,44.0,36.7,30.0,92,66,36,30.15,29.67,13,2,26,0.04
2013-4-13,58.0,50.4,42.0,40.0,29.3,22.0,72,47,26,29.95,29.67,16,7,27,0.04
2013-4-14,56.0,46.9,37.0,37.0,32.7,28.0,85,60,36,29.98,29.86,10,3,22,0.01
2013-4-15,54.0,44.8,35.0,42.0,34.6,30.0,91,69,46,30.12,29.91,9,2,20,0.07
2013-4-16,56.0,45.3,36.0,30.0,24.7,20.0,63,46,27,30.37,30.12,10,3,20,0.07
2013-4-17,60.0,45.4,29.0,35.0,25.4,19.0,87,50,21,30.48,30.35,5,1,10,0.00
2013-4-18,66.0,55.0,41.0,46.0,39.2,32.0,87,57,39,30.39,30.20,7,2,18,0.01
2013-4-19,65.0,56.1,52.0,51.0,47.1,42.0,86,72,55,30.21,29.98,10,5,21,0.03
2013-4-20,66.0,56.5,48.0,45.0,42.1,40.0,79,59,43,30.18,30.08,8,4,22,0.01
2013-4-21,64.0,52.6,42.0,44.0,39.4,34.0,89,63,39,30.28,30.08,7,2,13,0.00
2013-4-22,61.0,49.2,38.0,35.0,29.2,16.0,84,50,18,30.52,30.29,9,2,14,0.00
2013-4-23,66.0,50.1,33.0,35.0,27.3,19.0,92,47,17,30.41,30.20,5,1,11,0.01
2013-4-24,72.0,52.7,33.0,41.0,32.2,25.0,83,51,18,30.35,29.97,5,0,10,0.01
2013-4-25,77.0,60.7,41.0,48.0,40.3,35.0,92,52,25,30.05,29.95,6,1,12,0.05
2013-4-26,84.0,66.2,46.0,53.0,42.4,31.0,93,48,17,30.18,30.05,5,1,13,0.03
2013-4-27,76.0,65.3,54.0,46.0,37.9,28.0,61,38,17,30.15,30.03,12,4,26,0.03
2013-4-28,70.0,59.7,45.0,48.0,41.8,37.0,89,55,32,30.15,29.95,11,4,23,0.07
2013-4-29,63.0,56.8,46.0,45.0,34.3,23.0,71,45,22,30.06,29.85,16,7,28,0.05
2013-4-30,57.0,48.3,36.0,32.0,27.7,23.0,82,47,27,30.40,30.06,9,2,19,0.04
2013-5-1,65.0,49.9,33.0,37.0,28.7,20.0,82,48,18,30.60,30.40,5,0,9,0.04
2013-5-2,74.0,52.5,37.0,44.0,35.3,31.0,92,57,21,30.59,30.24,4,0,6,0.01
2013-5-3,77.0,62.3,47.0,49.0,43.1,36.0,81,53,27,30.31,30.13,8,2,18,0.01
2013-5-4,79.0,64.7,48.0,47.0,41.5,37.0,86,47,23,30.22,29.97,10,2,20,0.01
2013-5-5,83.0,66.1,47.0,50.0,43.1,38.0,88,47,22,30.00,29.77,6,1,13,0.01
2013-5-6,86.0,65.7,48.0,52.0,44.3,35.0,89,53,17,29.88,29.69,5,1,10,0.01
2013-5-7,90.0,67.7,49.0,55.0,47.2,39.0,94,54,18,29.84,29.74,4,0,7,0.02
2013-5-8,90.0,73.6,59.0,58.0,52.3,44.0,83,50,21,29.98,29.83,5,1,10,0.05
2013-5-9,91.0,73.6,57.0,62.0,54.1,49.0,89,54,26,30.09,29.96,4,0,9,0.02
2013-5-10,94.0,70.6,55.0,65.0,50.9,-99.9,93,60,16,30.13,30.00,3,0,8,0.05
2013-5-11,94.0,74.9,59.0,68.0,54.8,-99.9,90,56,23,30.10,29.93,5,0,8,0.04
2013-5-12,87.0,76.2,65.0,62.0,55.0,46.0,76,50,28,30.01,29.96,9,3,18,0.03
2013-5-13,71.0,64.4,57.0,57.0,49.2,39.0,85,59,39,30.17,29.99,12,4,27,0.06
2013-5-14,71.0,58.9,47.0,46.0,38.5,25.0,90,51,19,30.21,30.04,6,1,9,0.02
2013-5-15,50.0,47.6,46.0,41.0,40.6,40.0,83,77,68,30.08,30.07,0,0,4,0.03
2013-5-16,75.0,62.0,52.0,50.0,25.6,-99.9,84,51,32,29.97,29.81,5,1,9,0.00
2013-5-17,71.0,62.8,55.0,51.0,43.3,-99.9,74,56,37,29.99,29.86,9,2,18,0.00
2013-5-18,68.0,60.3,52.0,48.0,44.4,40.0,74,57,39,30.17,29.99,11,3,19,0.00
2013-5-19,75.0,62.8,51.0,51.0,45.0,40.0,84,54,35,30.29,30.17,4,1,12,0.02
2013-5-20,79.0,63.4,49.0,57.0,46.8,41.0,91,58,27,30.29,29.80,5,0,9,0.01
2013-5-21,66.0,57.0,46.0,51.0,46.0,41.0,88,67,53,29.82,29.69,10,3,28,0.18
2013-5-22,56.0,49.5,43.0,45.0,40.6,37.0,84,72,58,30.01,29.82,12,4,25,0.03
2013-5-23,67.0,54.1,40.0,44.0,40.6,37.0,93,64,34,30.05,29.96,6,1,12,0.00
2013-5-24,66.0,55.8,47.0,47.0,43.8,41.0,89,65,44,30.03,29.97,7,2,18,0.11
2013-5-25,71.0,57.0,47.0,47.0,42.5,39.0,89,63,33,30.04,29.94,5,1,12,0.01
2013-5-26,67.0,66.3,66.0,50.0,49.9,49.0,57,56,52,29.94,29.93,0,0,3,0.00
2013-5-27,67.0,60.9,53.0,55.0,50.7,46.0,88,70,50,29.94,29.79,8,1,14,0.05
2013-5-28,73.0,62.9,54.0,54.0,47.6,40.0,90,60,33,29.85,29.77,9,3,18,0.01
2013-5-29,69.0,58.0,51.0,57.0,48.3,41.0,93,71,50,29.94,29.69,12,2,22,0.22
2013-5-30,70.0,60.7,52.0,48.0,43.7,39.0,75,55,33,30.17,29.94,7,2,18,0.01
2013-5-31,74.0,61.4,50.0,49.0,44.3,40.0,79,56,31,30.30,30.17,4,1,10,0.00
2013-6-1,79.0,62.9,46.0,52.0,45.9,38.0,92,60,23,30.21,29.94,4,0,8,0.00
2013-6-2,77.0,66.0,53.0,54.0,47.7,44.0,88,54,32,29.97,29.88,8,1,13,0.04
2013-6-3,80.0,66.1,51.0,55.0,46.3,42.0,92,53,26,30.05,29.93,8,1,11,0.01
2013-6-4,83.0,69.0,54.0,58.0,50.4,45.0,90,55,30,30.12,30.00,4,1,8,0.01
2013-6-5,90.0,77.9,60.0,59.0,53.3,47.0,82,46,24,30.04,29.87,6,1,9,0.05
2013-6-6,91.0,75.4,60.0,62.0,55.1,47.0,93,53,29,29.98,29.84,5,0,9,0.02
2013-6-7,90.0,74.5,61.0,59.0,52.9,45.0,91,50,27,30.00,29.85,11,2,19,0.04
2013-6-8,89.0,71.7,54.0,54.0,47.7,38.0,92,48,18,30.07,29.88,5,1,12,0.04
2013-6-9,84.0,72.4,56.0,55.0,47.4,35.0,92,46,18,29.99,29.81,5,1,12,0.03
2013-6-10,80.0,66.2,51.0,52.0,45.7,41.0,92,51,28,29.93,29.74,5,1,14,0.02
2013-6-11,73.0,63.4,52.0,48.0,44.4,42.0,84,51,35,30.07,29.77,11,4,26,0.03
2013-6-12,56.0,52.8,50.0,48.0,44.4,42.0,92,74,60,30.12,30.07,1,0,7,0.03
2013-6-13,72.0,66.4,54.0,49.0,44.9,41.0,79,47,35,30.15,30.07,11,3,20,0.04
2013-6-14,78.0,64.8,54.0,52.0,45.5,37.0,77,53,24,30.21,30.02,5,2,13,0.04
2013-6-15,86.0,66.5,49.0,56.0,49.2,44.0,93,59,23,30.03,29.86,4,1,9,0.01
2013-6-16,91.0,73.8,56.0,57.0,52.1,48.0,91,50,26,30.00,29.86,8,1,16,0.03
2013-6-17,87.0,74.6,61.0,57.0,52.5,45.0,85,48,26,30.02,29.81,13,3,23,0.05
2013-6-18,70.0,63.1,59.0,56.0,52.9,50.0,85,70,50,29.98,29.88,7,2,14,0.03
2013-6-19,69.0,63.4,56.0,54.0,49.6,45.0,92,63,43,29.94,29.83,8,2,19,0.07
2013-6-20,69.0,60.8,56.0,53.0,47.3,44.0,86,62,41,30.07,29.94,8,4,21,0.01
2013-6-21,69.0,67.2,65.0,53.0,51.2,50.0,64,56,52,30.13,30.09,4,2,6,0.33
2013-6-22,78.0,71.4,50.0,58.0,50.8,46.0,94,50,33,30.10,29.89,7,1,10,0.00
2013-6-23,77.0,64.8,54.0,60.0,54.6,49.0,90,71,47,29.89,29.67,5,1,10,0.06
2013-6-24,71.0,64.2,60.0,61.0,57.2,53.0,94,79,58,29.73,29.65,7,1,16,0.09
2013-6-25,73.0,64.3,57.0,61.0,56.3,53.0,93,77,52,29.89,29.73,9,1,20,0.47
2013-6-26,72.0,65.4,60.0,62.0,57.7,55.0,88,77,62,30.08,29.89,4,0,8,0.05
2013-6-27,83.0,68.9,59.0,64.0,60.3,57.0,95,76,47,30.17,30.08,6,0,10,0.04
2013-6-28,93.0,77.6,61.0,69.0,63.3,58.0,90,64,37,30.21,29.97,5,1,8,0.00
2013-6-29,91.0,79.9,69.0,70.0,66.1,62.0,94,64,43,30.03,29.92,7,1,11,0.25
2013-6-30,95.0,80.7,66.0,72.0,66.7,63.0,92,65,37,30.03,29.85,7,1,14,0.01
2013-7-1,102.0,83.6,67.0,72.0,65.1,59.0,93,56,30,29.93,29.79,6,2,10,0.05
2013-7-2,105.0,89.7,73.0,73.0,65.9,53.0,95,49,25,29.96,29.80,4,1,10,0.10
2013-7-3,94.0,84.2,65.0,63.0,56.5,41.0,88,41,23,30.01,29.83,7,1,12,0.06
2013-7-4,92.0,79.0,62.0,57.0,51.1,44.0,80,40,22,29.94,29.78,6,1,12,0.01
2013-7-5,85.0,71.4,57.0,57.0,52.0,46.0,93,54,27,29.92,29.77,6,2,12,0.04
2013-7-6,88.0,71.9,58.0,59.0,52.1,38.0,93,55,17,29.91,29.76,6,0,8,0.05
2013-7-7,82.0,68.3,59.0,61.0,54.6,48.0,94,65,38,29.87,29.75,5,0,11,0.04
2013-7-8,90.0,80.5,68.0,62.0,53.9,-99.9,76,44,31,29.99,29.80,5,1,9,0.05
2013-7-9,95.0,73.6,60.0,63.0,57.7,50.0,93,63,22,30.09,29.90,0,0,1,0.03
2013-7-10,97.0,77.7,63.0,64.0,51.5,-99.9,93,47,18,29.92,29.71,7,2,14,0.06
2013-7-11,88.0,74.8,61.0,55.0,47.7,35.0,77,42,15,29.92,29.78,6,1,13,0.03
2013-7-12,83.0,67.8,54.0,52.0,44.2,39.0,93,45,23,30.00,29.84,7,1,14,0.06
2013-7-13,82.0,68.3,53.0,51.0,43.8,35.0,80,44,20,30.15,30.00,5,0,10,0.04
2013-7-14,93.0,71.7,53.0,55.0,46.3,40.0,94,47,17,30.10,29.85,5,0,8,0.04
2013-7-15,86.0,72.8,57.0,53.0,47.3,41.0,72,43,21,30.01,29.86,5,2,13,0.05
2013-7-16,93.0,76.3,63.0,58.0,51.9,45.0,66,44,26,29.94,29.72,6,2,17,0.08
2013-7-17,97.0,86.1,71.0,63.0,53.9,41.0,71,36,16,30.01,29.93,5,2,11,0.00
2013-7-18,94.0,76.2,65.0,59.0,48.5,42.0,57,39,29,30.11,29.95,3,0,11,0.06
2013-7-19,101.0,76.3,61.0,60.0,56.7,47.0,93,59,17,30.03,29.85,3,0,6,0.05
2013-7-20,98.0,83.1,64.0,60.0,48.1,-99.9,74,35,13,29.93,29.74,6,1,12,0.05
2013-7-21,90.0,76.9,62.0,59.0,52.2,43.0,89,45,24,29.84,29.78,5,1,10,0.03
2013-7-22,97.0,84.6,71.0,61.0,54.4,45.0,70,39,17,29.88,29.80,4,1,8,0.03
2013-7-23,97.0,80.0,60.0,61.0,55.2,49.0,92,47,22,29.98,29.83,3,1,7,0.03
2013-7-24,97.0,79.3,62.0,62.0,58.7,54.0,94,55,26,29.95,29.83,4,0,7,0.06
2013-7-25,97.0,78.5,62.0,60.0,55.4,48.0,93,49,19,29.99,29.88,5,1,8,0.02
2013-7-26,98.0,75.9,60.0,58.0,53.6,43.0,93,53,18,30.04,29.88,6,0,14,0.05
2013-7-27,90.0,79.1,62.0,56.0,50.4,43.0,72,39,23,30.03,29.81,6,1,14,0.05
2013-7-28,89.0,73.8,58.0,56.0,50.4,46.0,91,47,24,29.90,29.78,2,0,8,0.06
2013-7-29,89.0,78.0,58.0,59.0,55.0,51.0,89,49,28,29.90,29.81,0,0,6,0.06
2013-7-30,92.0,75.0,61.0,61.0,55.1,49.0,94,54,25,30.03,29.87,0,0,6,0.04
2013-7-31,84.0,73.3,58.0,61.0,57.3,52.0,95,60,35,30.04,29.89,0,0,1,0.04
2013-8-1,80.0,72.1,64.0,61.0,57.6,55.0,81,62,45,29.94,29.84,4,0,12,0.03
2013-8-2,76.0,67.4,61.0,62.0,56.0,53.0,90,68,50,30.06,29.93,6,1,13,0.05
2013-8-3,83.0,71.5,61.0,64.0,61.4,59.0,95,73,44,30.13,29.99,0,0,4,0.08
2013-8-4,90.0,73.6,59.0,67.0,59.4,54.0,96,66,30,30.06,29.87,0,0,2,0.06
2013-8-5,93.0,74.3,61.0,64.0,59.8,57.0,95,64,32,29.98,29.85,2,0,6,0.03
2013-8-6,98.0,83.2,62.0,63.0,52.6,43.0,95,42,16,29.94,29.80,0,0,6,0.02
2013-8-7,97.0,77.3,60.0,58.0,52.8,44.0,83,48,17,29.93,29.82,3,0,8,0.00
2013-8-8,94.0,76.9,62.0,64.0,56.5,51.0,95,53,24,29.93,29.80,1,0,7,0.02
2013-8-9,93.0,77.5,62.0,65.0,60.1,55.0,95,59,32,29.87,29.71,3,0,6,0.04
2013-8-10,91.0,78.6,63.0,64.0,59.6,52.0,95,55,36,29.94,29.81,2,0,5,0.05
2013-8-11,85.0,75.8,67.0,63.0,59.5,54.0,75,58,44,29.99,29.90,2,0,6,0.05
2013-8-13,94.0,83.4,68.0,60.0,50.2,-99.9,69,36,21,30.05,29.88,0,0,0,0.02
2013-8-14,69.0,65.4,64.0,59.0,56.9,55.0,82,74,65,29.92,29.90,0,0,1,0.02
2013-8-16,84.0,81.4,80.0,63.0,61.1,60.0,54,50,46,29.92,29.90,0,0,0,0.00
2013-8-17,90.0,79.3,68.0,67.0,57.2,-99.9,94,50,30,30.00,29.88,2,0,8,0.02
2013-8-18,93.0,77.2,62.0,62.0,55.7,49.0,86,52,24,30.07,29.91,0,0,0,0.02
2013-8-19,90.0,73.3,60.0,63.0,43.6,-99.9,95,49,29,30.03,29.88,2,0,5,0.04
2013-8-20,87.0,72.5,59.0,59.0,51.2,-99.9,80,52,28,30.08,29.94,0,0,0,0.04
2013-8-21,89.0,69.2,53.0,58.0,52.2,45.0,95,60,22,30.06,29.88,0,0,4,0.06
2013-8-22,89.0,76.0,60.0,57.0,53.6,49.0,79,48,29,29.93,29.78,0,0,1,0.00
2013-8-23,89.0,78.1,66.0,62.0,55.7,44.0,83,48,26,29.82,29.73,0,0,0,0.03
2013-8-24,88.0,73.3,60.0,61.0,53.1,-99.9,94,53,30,29.85,29.72,0,0,0,0.04
2013-8-25,84.0,72.2,64.0,61.0,55.4,52.0,84,57,38,29.91,29.75,0,0,0,0.04
2013-8-26,82.0,70.6,60.0,63.0,58.9,55.0,90,68,46,29.96,29.86,0,0,0,0.00
2013-8-27,81.0,66.9,60.0,60.0,55.6,52.0,85,69,40,29.97,29.88,0,0,0,0.00
2013-8-28,90.0,81.3,70.0,65.0,61.0,57.0,75,52,35,29.86,29.78,0,0,0,0.00
2013-8-29,91.0,74.7,60.0,64.0,59.3,55.0,95,63,32,30.03,29.83,0,0,5,0.02
2013-8-30,88.0,75.6,63.0,64.0,58.1,51.0,94,58,29,30.12,29.99,0,0,0,0.07
2013-8-31,88.0,72.4,57.0,59.0,53.3,-99.9,86,56,32,30.07,29.82,0,0,0,0.04
2013-9-1,94.0,73.9,56.0,62.0,56.1,52.0,95,58,28,29.86,29.70,0,0,0,0.05
2013-9-2,86.0,72.4,65.0,60.0,57.5,54.0,79,61,41,29.83,29.73,0,0,0,0.06
2013-9-3,91.0,80.2,63.0,67.0,62.8,57.0,95,59,34,29.92,29.85,0,0,0,0.04
2013-9-4,91.0,75.4,63.0,66.0,61.5,58.0,88,64,38,29.97,29.85,0,0,0,0.00
2013-9-5,83.0,72.2,65.0,66.0,62.3,56.0,94,72,49,29.98,29.77,0,0,0,0.02
2013-9-6,73.0,66.5,61.0,58.0,55.4,51.0,80,68,57,30.11,29.91,0,0,0,0.04
2013-9-7,77.0,64.3,55.0,61.0,55.0,-99.9,93,75,49,30.14,30.01,0,0,0,0.00
2013-9-8,83.0,69.4,56.0,62.0,57.8,54.0,94,70,42,30.11,29.95,0,0,0,0.00
2013-9-9,89.0,72.7,58.0,63.0,58.3,55.0,92,65,33,30.01,29.88,0,0,0,0.00
2013-9-10,90.0,72.4,57.0,63.0,58.3,53.0,89,64,36,30.01,29.87,0,0,0,0.00
2013-9-11,95.0,75.1,58.0,65.0,59.8,56.0,95,63,32,30.03,29.89,0,0,0,0.04
2013-9-12,92.0,73.7,60.0,66.0,60.4,57.0,94,66,37,29.97,29.81,0,0,0,0.03
2013-9-13,78.0,68.1,62.0,66.0,62.7,60.0,95,83,65,29.84,29.82,0,0,0,0.03
2013-9-14,92.0,81.5,66.0,66.0,59.2,-99.9,95,50,35,29.83,29.69,0,0,0,0.00
2013-9-15,92.0,73.7,62.0,66.0,61.2,57.0,90,69,36,29.76,29.51,0,0,0,0.33
2013-9-16,78.0,69.3,62.0,60.0,55.5,53.0,82,63,42,29.90,29.76,0,0,0,0.33
2013-9-17,68.0,63.8,58.0,58.0,54.2,45.0,85,72,49,29.86,29.74,0,0,0,0.00
2013-9-18,64.0,58.5,56.0,50.0,46.9,46.0,73,66,53,30.07,29.86,0,0,0,0.00
2013-9-19,79.0,58.9,46.0,52.0,47.9,44.0,96,70,31,30.11,29.85,0,0,2,0.05
2013-9-20,78.0,63.1,49.0,52.0,47.1,44.0,87,59,32,29.85,29.54,0,0,0,0.00
2013-9-21,74.0,66.3,61.0,55.0,49.0,-99.9,72,56,39,29.71,29.62,0,0,0,0.00
2013-9-22,70.0,60.8,56.0,55.0,50.7,47.0,93,70,47,29.79,29.68,0,0,0,0.06
2013-9-23,68.0,61.7,57.0,50.0,48.1,46.0,76,62,47,29.95,29.79,0,0,0,0.02
2013-9-24,64.0,58.4,53.0,56.0,49.2,44.0,95,72,54,29.94,29.79,0,0,0,0.05
2013-9-25,70.0,56.7,49.0,49.0,44.5,39.0,82,66,33,29.91,29.80,0,0,0,0.02
2013-9-26,68.0,58.3,53.0,50.0,45.0,42.0,79,63,40,30.07,29.91,0,0,0,0.00
2013-9-27,63.0,54.7,49.0,51.0,47.0,42.0,94,76,50,30.09,29.92,0,0,0,0.17
2013-9-28,72.0,62.5,54.0,56.0,51.1,-99.9,94,70,48,29.92,29.46,0,0,0,0.08
2013-9-29,66.0,59.1,53.0,49.0,46.9,44.0,85,64,51,29.70,29.38,0,0,0,0.11
2013-9-30,66.0,59.0,53.0,52.0,43.5,39.0,77,57,47,29.96,29.42,0,0,0,0.03
2013-10-1,57.0,52.3,48.0,44.0,41.8,40.0,78,68,62,30.18,30.06,0,0,0,0.00
2013-10-2,58.0,51.1,43.0,45.0,41.8,38.0,86,71,56,30.18,30.04,0,0,0,0.00
2013-10-3,66.0,54.5,45.0,45.0,42.6,40.0,89,66,40,30.40,30.10,0,0,0,0.00
2013-10-4,65.0,49.4,37.0,46.0,40.8,35.0,95,75,43,30.55,30.41,0,0,0,0.00
2013-10-5,70.0,51.5,37.0,47.0,41.3,35.0,95,72,35,30.44,30.24,0,0,0,0.00
2013-10-6,72.0,51.7,37.0,48.0,42.7,36.0,96,74,36,30.24,29.95,2,0,5,0.01
2013-10-7,67.0,56.1,46.0,50.0,44.5,40.0,96,68,40,30.00,29.91,0,0,10,0.03
2013-10-8,52.0,52.0,52.0,43.0,43.0,43.0,72,72,72,29.99,29.99,0,0,0,0.03
2013-10-11,63.0,57.6,53.0,47.0,43.2,41.0,69,59,46,30.14,30.03,0,0,0,0.00
2013-10-12,57.0,51.7,47.0,49.0,43.2,-99.9,87,76,61,30.18,30.03,0,0,0,0.00
2013-10-13,64.0,52.2,44.0,46.0,41.2,35.0,90,69,37,30.32,30.17,0,0,0,0.00
2013-10-14,63.0,46.5,35.0,43.0,38.2,33.0,95,75,41,30.44,30.32,0,0,0,0.00
2013-10-15,63.0,45.6,33.0,42.0,37.0,31.0,96,75,37,30.45,30.18,0,0,0,0.00
2013-10-16,61.0,47.7,38.0,45.0,39.8,36.0,96,76,41,30.23,30.14,0,0,0,0.00
2013-10-17,65.0,48.8,36.0,44.0,39.6,34.0,95,74,40,30.31,30.19,0,0,0,0.02
2013-10-18,65.0,47.7,35.0,46.0,39.9,33.0,95,77,44,30.34,30.19,0,0,0,0.00
2013-10-19,58.0,40.9,34.0,45.0,35.3,-99.9,95,85,63,30.21,30.10,0,0,0,0.00
2013-10-20,69.0,50.1,37.0,51.0,42.4,35.0,95,77,45,30.20,30.09,0,0,0,0.00
2013-10-21,69.0,50.6,38.0,52.0,43.7,36.0,95,79,48,30.23,30.13,0,0,0,0.00
2013-10-22,67.0,50.6,39.0,51.0,43.6,37.0,95,79,54,30.22,30.07,0,0,0,0.00
2013-10-23,66.0,49.8,38.0,52.0,43.9,36.0,95,82,54,30.17,30.06,0,0,0,0.00
2013-10-24,64.0,48.7,37.0,50.0,43.3,36.0,96,83,60,30.16,30.07,0,0,3,0.00
2013-10-25,64.0,50.5,40.0,50.0,44.8,39.0,96,82,57,30.28,30.21,0,0,2,0.00
2013-10-26,62.0,46.1,37.0,50.0,40.9,-99.9,96,85,61,30.34,30.09,3,0,4,0.01
2013-10-27,52.0,48.9,41.0,48.0,44.7,38.0,95,86,60,30.09,29.79,9,2,17,0.01
2013-10-28,56.0,47.7,42.0,38.0,28.4,-99.9,67,50,33,29.95,29.84,16,7,29,0.00
2013-10-29,53.0,39.8,29.0,30.0,25.7,22.0,77,59,34,30.09,29.95,2,0,6,0.00
2013-10-30,59.0,40.8,29.0,38.0,32.3,27.0,93,74,43,30.11,30.04,3,0,8,0.00
2013-10-31,69.0,54.9,44.0,50.0,41.8,34.0,82,62,43,30.21,30.06,6,2,17,0.00
2013-11-1,66.0,53.7,42.0,48.0,43.1,39.0,92,69,37,30.28,29.96,4,0,6,0.00
2013-11-2,60.0,50.2,44.0,48.0,39.3,-99.9,91,70,47,29.94,29.65,17,6,33,0.06
2013-11-3,55.0,46.1,41.0,37.0,34.8,30.0,77,66,38,30.06,29.89,10,4,18,0.00
2013-11-4,52.0,41.1,33.0,35.0,28.7,23.0,86,63,35,30.21,30.07,3,0,6,0.00
2013-11-5,46.0,41.1,35.0,40.0,36.5,30.0,93,84,76,30.25,30.14,4,0,9,0.09
2013-11-6,47.0,41.4,35.0,41.0,37.5,33.0,94,86,76,30.40,30.26,5,1,10,0.03
2013-11-7,53.0,45.5,41.0,45.0,40.5,39.0,94,84,65,30.25,29.85,9,2,22,0.12
2013-11-8,56.0,51.2,46.0,44.0,41.3,39.0,76,69,61,30.17,29.96,11,5,22,0.00
2013-11-9,49.0,43.5,38.0,42.0,37.2,-99.9,94,82,73,30.22,30.14,6,1,8,0.00
2013-11-10,54.0,47.4,43.0,44.0,41.6,40.0,90,81,68,30.27,30.15,2,0,6,0.00
2013-11-11,51.0,44.2,37.0,44.0,40.1,35.0,93,86,74,30.38,30.26,3,0,8,0.00
2013-11-12,54.0,46.3,39.0,47.0,42.2,37.0,94,86,73,30.38,30.26,2,0,7,0.00
2013-11-13,61.0,45.1,35.0,49.0,40.4,34.0,96,85,54,30.43,30.28,5,1,12,0.00
2013-11-14,47.0,40.5,36.0,42.0,37.8,34.0,95,90,79,30.27,29.99,3,0,7,0.00
2013-11-15,50.0,43.7,38.0,40.0,37.1,35.0,92,78,60,30.00,29.73,9,4,19,0.01
2013-11-16,49.0,43.4,45.0,38.0,29.3,-99.9,74,66,57,29.74,29.62,14,6,23,0.00
2013-11-17,59.0,50.5,45.0,42.0,38.8,36.0,81,65,48,29.94,29.75,11,5,25,0.00
2013-11-18,57.0,53.2,50.0,46.0,39.9,36.0,85,61,50,29.94,29.69,7,2,19,0.02
2013-11-19,60.0,53.9,45.0,49.0,40.5,29.0,80,61,51,29.90,29.63,9,4,19,0.02
2013-11-20,46.0,36.0,22.0,30.0,15.3,8.0,60,43,26,30.51,29.91,8,3,13,0.00
2013-11-21,36.0,24.6,15.0,18.0,13.8,9.0,82,64,44,30.76,30.51,2,0,5,0.00
2013-11-22,37.0,24.8,15.0,23.0,17.2,11.0,88,73,52,30.86,30.71,5,0,7,0.00
2013-11-23,36.0,24.7,16.0,23.0,16.8,-99.9,87,75,60,30.71,30.44,4,0,7,0.00
2013-11-24,37.0,25.7,18.0,27.0,20.7,15.0,93,82,63,30.47,30.37,2,0,4,0.00
2013-11-25,26.0,24.8,23.0,22.0,21.2,20.0,89,86,82,30.50,30.47,0,0,0,0.00
2013-11-27,39.0,32.4,25.0,30.0,27.0,22.0,91,81,70,30.21,30.17,1,0,3,0.00
2013-12-3,36.0,30.3,21.0,27.0,17.2,11.0,85,59,44,30.32,30.04,12,4,17,0.00
2013-12-4,28.0,20.5,13.0,15.0,11.2,9.0,82,68,47,30.42,30.32,4,0,7,0.00
2013-12-5,25.0,16.5,10.0,15.0,10.8,6.0,88,78,66,30.42,30.33,2,0,8,0.00
2013-12-6,26.0,19.2,12.0,15.0,9.3,0.0,85,66,41,30.35,30.19,10,2,16,0.00
2013-12-7,22.0,16.9,12.0,1.0,-4.1,-99.9,51,40,31,30.49,30.24,10,4,19,0.00
2013-12-8,21.0,14.4,8.0,4.0,0.1,-4.0,70,53,44,30.63,30.47,5,1,8,0.00
2013-12-9,24.0,15.9,12.0,11.0,7.0,2.0,79,68,53,30.62,30.44,4,0,7,0.00
2013-12-10,29.0,20.6,14.0,13.0,10.8,7.0,80,66,48,30.52,30.44,4,1,7,0.00
2013-12-11,31.0,19.7,12.0,17.0,12.5,8.0,87,74,55,30.53,30.39,2,0,6,0.00
2013-12-12,32.0,25.6,17.0,25.0,19.0,12.0,87,76,65,30.38,30.19,2,0,5,0.00
2013-12-13,38.0,28.3,21.0,27.0,22.8,18.0,91,80,62,30.48,30.23,4,0,6,0.00
2013-12-14,37.0,31.1,23.0,30.0,25.0,-99.9,88,82,73,30.49,30.32,4,0,12,0.00
2013-12-15,58.0,41.2,25.0,44.0,33.9,22.0,93,77,58,30.34,30.23,11,3,22,0.00
2013-12-16,53.0,41.7,28.0,41.0,35.6,26.0,93,80,57,30.44,30.34,5,1,12,0.00
2013-12-17,36.0,29.7,25.0,34.0,27.8,23.0,95,93,88,30.33,30.03,4,0,8,0.00
2013-12-18,50.0,36.3,28.0,41.0,31.4,20.0,100,84,55,30.12,29.91,7,1,11,0.01
2013-12-19,38.0,31.3,22.0,19.0,13.6,9.0,72,49,30,30.33,30.12,6,1,11,0.01
2013-12-20,42.0,34.1,28.0,35.0,25.4,15.0,90,71,47,30.16,29.64,7,2,20,0.04
2013-12-21,37.0,31.5,28.0,30.0,25.7,-99.9,90,82,75,30.17,29.84,2,0,5,0.01
2013-12-22,35.0,32.0,30.0,31.0,28.9,27.0,92,88,85,30.34,30.17,3,0,6,0.02
2013-12-23,60.0,43.0,32.0,47.0,35.4,30.0,93,77,44,30.38,30.07,14,3,24,0.01